createdAt,value
2023-04-10T00:01:12.996Z,91.07
2023-04-10T00:06:07.293Z,91.64
2023-04-10T00:11:00.151Z,91.53
2023-04-10T00:15:52.309Z,91.56
2023-04-10T00:20:44.853Z,93.48
2023-04-10T00:25:39.079Z,93.70
2023-04-10T00:35:37.314Z,94.48
2023-04-10T00:40:30.566Z,96.81
2023-04-10T00:45:26.481Z,96.88
2023-04-10T00:50:20.476Z,97.68
2023-04-10T00:55:16.267Z,98.02
2023-04-10T01:05:19.241Z,98.35
2023-04-10T01:10:36.168Z,98.68
2023-04-10T01:15:36.639Z,98.57
2023-04-10T01:20:37.849Z,100.00
2023-04-10T01:25:49.197Z,99.83
2023-04-10T01:30:43.835Z,99.77
2023-04-10T01:40:53.950Z,100.00
2023-04-10T01:45:50.572Z,100.00
2023-04-10T01:50:45.759Z,100.00
2023-04-10T01:55:39.766Z,100.00
2023-04-10T02:00:40.071Z,100.00
2023-04-10T02:11:22.069Z,100.00
2023-04-10T02:16:17.732Z,100.00
2023-04-10T02:21:09.661Z,100.00
2023-04-10T02:26:09.244Z,100.00
2023-04-10T02:31:01.460Z,100.00
2023-04-10T02:35:55.420Z,100.00
2023-04-10T02:41:04.567Z,100.00
2023-04-10T02:45:57.383Z,100.00
2023-04-10T02:50:50.078Z,100.00
2023-04-10T03:06:13.616Z,100.00
2023-04-10T03:16:19.257Z,100.00
2023-04-10T03:21:19.816Z,100.00
2023-04-10T03:26:13.162Z,100.00
2023-04-10T03:31:07.465Z,100.00
2023-04-10T03:41:10.378Z,100.00
2023-04-10T03:56:40.175Z,100.00
2023-04-10T04:01:33.553Z,100.00
2023-04-10T04:06:25.442Z,100.00
2023-04-10T04:11:17.173Z,100.00
2023-04-10T04:16:11.026Z,100.00
2023-04-10T04:26:23.812Z,100.00
2023-04-10T04:31:28.637Z,100.00
2023-04-10T04:36:22.643Z,100.00
2023-04-10T04:41:18.230Z,100.00
2023-04-10T04:46:11.820Z,100.00
2023-04-10T04:51:03.704Z,100.00
2023-04-10T04:55:55.537Z,100.00
2023-04-10T05:00:47.225Z,100.00
2023-04-10T05:05:38.898Z,100.00
2023-04-10T05:10:30.865Z,100.00
2023-04-10T05:15:22.900Z,92.23
2023-04-10T05:20:14.587Z,83.39
2023-04-10T05:25:06.896Z,80.91
2023-04-10T05:30:01.059Z,80.60
2023-04-10T05:34:52.830Z,81.63
2023-04-10T05:39:45.283Z,82.14
2023-04-10T05:44:44.144Z,80.45
2023-04-10T05:49:36.008Z,79.73
2023-04-10T05:54:27.857Z,79.94
2023-04-10T05:59:19.524Z,77.68
2023-04-10T06:04:11.487Z,75.74
2023-04-10T06:09:03.529Z,73.23
2023-04-10T06:13:55.217Z,71.22
2023-04-10T06:18:47.685Z,67.58
2023-04-10T06:23:39.381Z,67.63
2023-04-10T06:28:31.366Z,67.62
2023-04-10T06:33:26.159Z,68.77
2023-04-10T06:38:18.012Z,68.78
2023-04-10T06:43:09.679Z,69.91
2023-04-10T06:48:01.585Z,69.96
2023-04-10T06:52:55.760Z,70.20
2023-04-10T06:57:47.440Z,67.97
2023-04-10T07:02:39.118Z,68.36
2023-04-10T07:07:31.476Z,67.29
2023-04-10T07:12:23.676Z,67.98
2023-04-10T07:17:15.412Z,67.47
2023-04-10T07:22:07.842Z,67.04
2023-04-10T07:27:00.631Z,65.83
2023-04-10T07:31:52.450Z,66.95
2023-04-10T07:36:45.946Z,67.17
2023-04-10T07:41:38.486Z,66.84
2023-04-10T07:46:30.275Z,67.83
2023-04-10T07:51:22.442Z,67.68
2023-04-10T07:56:19.254Z,65.79
2023-04-10T08:01:11.037Z,65.09
2023-04-10T08:06:03.015Z,64.21
2023-04-10T08:10:54.705Z,65.05
2023-04-10T08:15:48.259Z,64.94
2023-04-10T08:20:40.783Z,64.27
2023-04-10T08:25:32.554Z,62.86
2023-04-10T08:30:24.265Z,61.88
2023-04-10T08:35:15.970Z,60.68
2023-04-10T08:40:12.100Z,60.02
2023-04-10T08:45:07.807Z,58.58
2023-04-10T08:50:06.835Z,59.66
2023-04-10T08:55:06.999Z,58.66
2023-04-10T08:59:59.578Z,59.58
2023-04-10T09:04:58.929Z,58.09
2023-04-10T09:09:50.678Z,58.69
2023-04-10T09:14:43.063Z,58.46
2023-04-10T09:19:34.752Z,56.79
2023-04-10T09:24:27.279Z,56.41
2023-04-10T09:29:19.420Z,55.91
2023-04-10T09:34:19.225Z,55.72
2023-04-10T09:44:38.411Z,52.92
2023-04-10T09:49:53.457Z,50.65
2023-04-10T09:54:45.708Z,47.57
2023-04-10T09:59:41.260Z,43.68
2023-04-10T10:04:43.779Z,42.71
2023-04-10T10:09:38.259Z,42.45
2023-04-10T10:20:15.696Z,40.58
2023-04-10T10:30:29.465Z,41.23
2023-04-10T10:35:29.295Z,41.50
2023-04-10T10:40:39.665Z,40.67
2023-04-10T10:45:53.479Z,41.42
2023-04-10T10:56:24.235Z,40.29
2023-04-10T11:01:21.652Z,40.20
2023-04-10T11:06:20.900Z,39.37
2023-04-10T11:11:20.223Z,39.29
2023-04-10T11:26:45.072Z,40.89
2023-04-10T11:36:45.348Z,36.94
2023-04-10T11:46:47.595Z,36.33
2023-04-10T11:51:50.676Z,35.78
2023-04-10T12:02:17.210Z,28.82
2023-04-10T12:07:09.719Z,30.15
2023-04-10T12:12:10.948Z,28.93
2023-04-10T12:17:05.984Z,29.57
2023-04-10T12:21:59.874Z,30.95
2023-04-10T12:26:51.638Z,30.08
2023-04-10T12:31:43.393Z,28.29
2023-04-10T12:36:35.370Z,27.35
2023-04-10T12:41:31.344Z,27.26
2023-04-10T12:46:29.917Z,26.78
2023-04-10T12:51:49.083Z,25.10
2023-04-10T12:56:47.422Z,24.22
2023-04-10T13:01:39.961Z,24.26
2023-04-10T13:06:31.888Z,24.66
2023-04-10T13:11:23.660Z,22.75
2023-04-10T13:16:16.687Z,21.86
2023-04-10T13:21:08.545Z,21.23
2023-04-10T13:26:00.219Z,20.96
2023-04-10T13:30:52.165Z,21.00
2023-04-10T13:35:44.208Z,22.17
2023-04-10T13:40:36.049Z,21.50
2023-04-10T13:45:27.806Z,20.90
2023-04-10T13:50:19.611Z,20.93
2023-04-10T13:55:11.464Z,20.11
2023-04-10T14:00:04.520Z,20.33
2023-04-10T14:04:56.213Z,20.53
2023-04-10T14:09:48.432Z,21.30
2023-04-10T14:14:40.140Z,21.02
2023-04-10T14:19:35.500Z,21.74
2023-04-10T14:24:27.192Z,22.51
2023-04-10T14:29:22.596Z,23.24
2023-04-10T14:34:17.895Z,22.81
2023-04-10T14:39:09.678Z,23.04
2023-04-10T14:44:03.019Z,23.28
2023-04-10T14:48:55.341Z,23.16
2023-04-10T14:53:47.218Z,24.38
2023-04-10T14:58:39.341Z,22.88
2023-04-10T15:03:31.200Z,23.98
2023-04-10T15:08:22.928Z,22.70
2023-04-10T15:13:14.683Z,23.14
2023-04-10T15:18:06.426Z,23.19
2023-04-10T15:22:59.228Z,23.48
2023-04-10T15:27:54.690Z,23.68
2023-04-10T15:32:46.532Z,24.47
2023-04-10T15:37:38.249Z,25.55
2023-04-10T15:42:30.162Z,26.02
2023-04-10T15:47:21.860Z,26.15
2023-04-10T15:52:13.717Z,25.59
2023-04-10T15:57:05.613Z,26.05
2023-04-10T16:01:57.488Z,27.85
2023-04-10T16:06:49.259Z,28.14
2023-04-10T16:11:41.477Z,29.11
2023-04-10T16:16:33.480Z,30.86
2023-04-10T16:21:25.179Z,31.85
2023-04-10T16:26:18.379Z,32.63
2023-04-10T16:31:10.275Z,33.36
2023-04-10T16:36:05.293Z,33.85
2023-04-10T16:41:01.773Z,34.54
2023-04-10T16:45:58.669Z,34.90
2023-04-10T16:50:50.413Z,35.24
2023-04-10T16:55:42.068Z,34.93
2023-04-10T17:00:35.701Z,35.28
2023-04-10T17:05:41.199Z,35.53
2023-04-10T17:10:33.560Z,36.02
2023-04-10T17:15:25.754Z,35.38
2023-04-10T17:20:18.661Z,35.17
2023-04-10T17:25:11.842Z,35.11
2023-04-10T17:30:11.909Z,35.84
2023-04-10T17:35:03.927Z,36.69
2023-04-10T17:39:55.738Z,36.56
2023-04-10T17:44:57.461Z,36.99
2023-04-10T17:54:55.000Z,38.87
2023-04-10T17:59:47.055Z,39.77
2023-04-10T18:04:39.699Z,40.09
2023-04-10T18:09:31.358Z,41.65
2023-04-10T18:14:23.061Z,42.08
2023-04-10T18:19:14.848Z,42.55
2023-04-10T18:24:07.111Z,42.33
2023-04-10T18:29:01.140Z,42.36
2023-04-10T18:34:06.442Z,42.53
2023-04-10T18:38:59.704Z,42.90
2023-04-10T18:44:03.642Z,43.61
2023-04-10T18:48:57.171Z,43.96
2023-04-10T18:53:49.332Z,45.04
2023-04-10T18:58:41.524Z,44.95
2023-04-10T19:03:33.479Z,45.59
2023-04-10T19:08:25.742Z,45.98
2023-04-10T19:13:17.465Z,47.57
2023-04-10T19:18:09.939Z,47.47
2023-04-10T19:23:01.647Z,48.05
2023-04-10T19:27:53.349Z,47.90
2023-04-10T19:32:46.183Z,47.52
2023-04-10T19:37:37.991Z,46.70
2023-04-10T19:42:29.683Z,46.83
2023-04-10T19:47:21.384Z,47.13
2023-04-10T19:52:13.084Z,48.91
2023-04-10T19:57:04.939Z,48.91
2023-04-10T20:01:56.728Z,48.96
2023-04-10T20:06:49.128Z,49.48
2023-04-10T20:11:40.959Z,49.39
2023-04-10T20:16:32.704Z,50.27
2023-04-10T20:21:25.450Z,51.20
2023-04-10T20:26:18.181Z,50.82
2023-04-10T20:31:11.159Z,51.87
2023-04-10T20:36:03.030Z,51.40
2023-04-10T20:40:54.837Z,51.53
2023-04-10T20:45:47.203Z,52.16
2023-04-10T20:50:44.818Z,53.50
2023-04-10T20:55:39.918Z,54.14
2023-04-10T21:00:32.675Z,54.37
2023-04-10T21:05:25.138Z,54.37
2023-04-10T21:10:17.048Z,54.77
2023-04-10T21:20:15.294Z,54.68
2023-04-10T21:25:07.565Z,54.99
2023-04-10T21:29:59.279Z,55.31
2023-04-10T21:34:58.601Z,55.60
2023-04-10T21:39:50.402Z,56.95
2023-04-10T21:44:42.641Z,56.52
2023-04-10T21:49:35.608Z,56.69
2023-04-10T21:54:28.369Z,57.73
2023-04-10T21:59:20.190Z,58.55
2023-04-10T22:19:34.304Z,62.09
2023-04-10T22:24:26.014Z,63.15
2023-04-10T22:29:17.684Z,63.63
2023-04-10T22:34:10.028Z,64.16
2023-04-10T22:39:03.153Z,64.43
2023-04-10T22:54:29.527Z,65.07
2023-04-10T22:59:21.209Z,65.63
2023-04-10T23:36:38.285Z,65.42
2023-04-10T23:41:29.956Z,65.80
2023-04-10T23:46:21.711Z,66.13
2023-04-10T23:51:13.387Z,67.23
2023-04-10T23:56:07.649Z,68.14
